Time;durP1;ratioP1;P1;durP2;ratioP2;P2;SDS_P1;SDS_P2;PMS_P1;PMS_P2;Temp;Humidity;BMP_temperature;BMP_pressure;BME280_temperature;BME280_humidity;BME280_pressure;Samples;Min_cycle;Max_cycle;Signal;HPM_P1;HPM_P2
2022/01/05 00:00:09;;;;;;;0.50;0.50;;;21.30;54.70;;;;;;4921221;29;20186;-72
2022/01/05 00:02:36;;;;;;;1.15;0.70;;;21.30;54.80;;;;;;4921668;29;20182;-72
2022/01/05 00:05:07;;;;;;;0.60;0.60;;;21.30;54.70;;;;;;4936828;29;20182;-72
2022/01/05 00:07:33;;;;;;;0.52;0.52;;;21.30;54.70;;;;;;4921134;29;20194;-72
2022/01/05 00:09:59;;;;;;;0.50;0.50;;;21.30;54.70;;;;;;4921314;29;20201;-72
2022/01/05 00:12:25;;;;;;;0.57;0.57;;;21.30;54.60;;;;;;4954304;28;20190;-72
2022/01/05 00:14:51;;;;;;;0.60;0.60;;;21.30;54.70;;;;;;4940967;29;20190;-72
2022/01/05 00:17:17;;;;;;;2.15;0.60;;;21.30;54.60;;;;;;4940745;29;20700;-72
2022/01/05 00:19:43;;;;;;;0.50;0.50;;;21.30;55.30;;;;;;4924902;29;20273;-72
2022/01/05 00:22:10;;;;;;;0.60;0.60;;;21.30;54.60;;;;;;4940799;29;20257;-71
2022/01/05 00:24:36;;;;;;;0.60;0.60;;;21.30;54.60;;;;;;4924892;29;20676;-72
2022/01/05 00:27:04;;;;;;;0.95;0.65;;;21.30;54.60;;;;;;4940970;29;20246;-72
2022/01/05 00:29:30;;;;;;;0.50;0.50;;;21.30;54.60;;;;;;4940681;29;20288;-72
2022/01/05 00:31:55;;;;;;;0.60;0.60;;;21.30;54.60;;;;;;4924794;29;20289;-72
2022/01/05 00:34:21;;;;;;;0.60;0.60;;;21.30;54.60;;;;;;4924375;29;20186;-72
2022/01/05 00:36:47;;;;;;;0.47;0.47;;;21.30;54.60;;;;;;4957633;29;20213;-72
2022/01/05 00:39:13;;;;;;;0.60;0.60;;;21.30;54.60;;;;;;4957713;29;20222;-72
2022/01/05 00:41:38;;;;;;;0.50;0.50;;;21.30;54.60;;;;;;4940372;29;20671;-72
2022/01/05 00:44:05;;;;;;;0.63;0.63;;;21.30;54.60;;;;;;4924757;29;20182;-72
2022/01/05 00:46:31;;;;;;;0.40;0.40;;;21.30;54.60;;;;;;4924567;29;20213;-72
2022/01/05 00:48:56;;;;;;;0.40;0.40;;;21.30;54.60;;;;;;4957311;29;20575;-72
2022/01/05 00:51:22;;;;;;;0.50;0.50;;;21.30;54.50;;;;;;4940156;29;20182;-72
2022/01/05 00:53:48;;;;;;;0.60;0.60;;;21.30;54.50;;;;;;4924596;29;20223;-72
2022/01/05 00:56:13;;;;;;;0.70;0.70;;;21.30;54.50;;;;;;4940032;29;20225;-72
2022/01/05 00:58:39;;;;;;;0.43;0.43;;;21.30;54.50;;;;;;4940193;29;20202;-72
2022/01/05 01:01:05;;;;;;;0.60;0.40;;;21.30;54.50;;;;;;4924183;29;20197;-72
2022/01/05 01:03:31;;;;;;;0.50;0.50;;;21.30;54.50;;;;;;4924199;29;20286;-72
2022/01/05 01:06:01;;;;;;;0.40;0.40;;;21.30;55.00;;;;;;4956934;29;20179;-72
2022/01/05 01:08:27;;;;;;;0.50;0.50;;;21.30;54.50;;;;;;4939876;29;20203;-72
2022/01/05 01:10:54;;;;;;;0.40;0.40;;;21.30;54.40;;;;;;4924340;29;20189;-72
2022/01/05 01:13:21;;;;;;;0.40;0.40;;;21.30;54.40;;;;;;4939822;29;20189;-72
2022/01/05 01:15:48;;;;;;;0.40;0.40;;;21.30;54.40;;;;;;4939665;29;20198;-72
2022/01/05 01:18:15;;;;;;;0.60;0.60;;;21.30;54.40;;;;;;4923723;29;20218;-72
2022/01/05 01:20:41;;;;;;;0.40;0.40;;;21.30;55.00;;;;;;4923915;29;20187;-72
2022/01/05 01:23:08;;;;;;;0.40;0.40;;;21.30;54.30;;;;;;4939637;29;20186;-72
2022/01/05 01:25:34;;;;;;;0.60;0.55;;;21.30;54.40;;;;;;4938706;29;20285;-72
2022/01/05 01:28:00;;;;;;;0.30;0.30;;;21.30;54.40;;;;;;4939406;29;20338;-72
2022/01/05 01:30:27;;;;;;;0.50;0.50;;;21.30;54.40;;;;;;4939414;29;20223;-72
2022/01/05 01:32:53;;;;;;;0.50;0.50;;;21.30;54.40;;;;;;4923726;29;20194;-72
2022/01/05 01:35:19;;;;;;;0.57;0.50;;;21.30;54.40;;;;;;4923733;29;20194;-72
2022/01/05 01:37:45;;;;;;;0.50;0.50;;;21.30;54.40;;;;;;4923509;29;20226;-72
2022/01/05 01:40:11;;;;;;;0.50;0.50;;;21.30;54.40;;;;;;4923919;29;20182;-72
2022/01/05 01:42:37;;;;;;;0.55;0.55;;;21.30;54.40;;;;;;4923772;29;20222;-72
2022/01/05 01:45:04;;;;;;;0.47;0.47;;;21.30;54.40;;;;;;4923257;29;20198;-72
2022/01/05 01:47:30;;;;;;;0.40;0.40;;;21.30;54.30;;;;;;4923383;29;20677;-72
2022/01/05 01:49:56;;;;;;;0.40;0.40;;;21.30;54.30;;;;;;4923564;29;20190;-72
2022/01/05 01:52:21;;;;;;;0.40;0.40;;;21.30;54.30;;;;;;4923356;29;20190;-72
2022/01/05 01:54:48;;;;;;;0.40;0.40;;;21.30;54.30;;;;;;4923108;29;20191;-72
2022/01/05 01:57:14;;;;;;;0.50;0.50;;;21.30;54.30;;;;;;4938820;29;20210;-72
2022/01/05 01:59:40;;;;;;;0.40;0.40;;;21.30;54.20;;;;;;4938900;29;20253;-72
2022/01/05 02:02:07;;;;;;;0.40;0.40;;;21.30;54.20;;;;;;4923378;29;20187;-72
2022/01/05 02:04:35;;;;;;;0.32;0.32;;;21.30;54.20;;;;;;4923064;29;20218;-72
2022/01/05 02:07:03;;;;;;;0.40;0.40;;;21.30;54.20;;;;;;4939243;29;20199;-72
2022/01/05 02:09:29;;;;;;;0.40;0.40;;;21.30;54.20;;;;;;4923178;29;20236;-72
2022/01/05 02:11:55;;;;;;;0.30;0.30;;;21.30;54.20;;;;;;4922893;29;20658;-72
2022/01/05 02:14:21;;;;;;;0.40;0.40;;;21.30;54.20;;;;;;4938573;29;20186;-71
2022/01/05 02:16:47;;;;;;;0.65;0.40;;;21.30;54.20;;;;;;4955732;29;20206;-72
2022/01/05 02:19:14;;;;;;;0.30;0.30;;;21.30;54.20;;;;;;4938753;29;20253;-72
2022/01/05 02:21:42;;;;;;;0.30;0.30;;;21.30;54.20;;;;;;4923060;29;20218;-72
2022/01/05 02:24:10;;;;;;;0.75;0.40;;;21.30;54.20;;;;;;4938879;29;20182;-72
2022/01/05 02:26:38;;;;;;;0.30;0.30;;;21.30;54.20;;;;;;4922804;29;20248;-72
2022/01/05 02:29:05;;;;;;;0.32;0.32;;;21.30;54.20;;;;;;4922812;29;20221;-72
2022/01/05 02:31:31;;;;;;;0.50;0.50;;;21.30;54.20;;;;;;4922595;29;20209;-73
2022/01/05 02:33:56;;;;;;;0.52;0.50;;;21.30;54.20;;;;;;4938651;29;20190;-72
2022/01/05 02:36:22;;;;;;;0.40;0.40;;;21.30;54.20;;;;;;4921845;29;20608;-72
2022/01/05 02:38:51;;;;;;;0.30;0.30;;;21.30;54.20;;;;;;4938152;29;20214;-72
2022/01/05 02:41:18;;;;;;;0.40;0.30;;;21.30;54.20;;;;;;4938268;29;20272;-72
2022/01/05 02:43:45;;;;;;;0.43;0.43;;;21.30;54.20;;;;;;4938150;29;20195;-72
2022/01/05 02:46:14;;;;;;;0.30;0.30;;;21.30;54.20;;;;;;4955060;29;20178;-72
2022/01/05 02:48:44;;;;;;;0.40;0.40;;;21.30;54.20;;;;;;4954352;29;20289;-72
2022/01/05 02:51:11;;;;;;;0.40;0.40;;;21.30;54.20;;;;;;4938158;29;20186;-72
2022/01/05 02:53:37;;;;;;;0.40;0.40;;;21.30;54.10;;;;;;4938013;29;20183;-72
2022/01/05 02:56:04;;;;;;;0.43;0.43;;;21.30;54.20;;;;;;4922109;29;20183;-72
2022/01/05 02:58:31;;;;;;;0.40;0.40;;;21.30;54.10;;;;;;4937959;29;20202;-72
2022/01/05 03:00:57;;;;;;;0.32;0.30;;;21.30;54.10;;;;;;4953999;29;20186;-72
2022/01/05 03:03:23;;;;;;;0.40;0.40;;;21.30;54.10;;;;;;4938360;29;20194;-72
2022/01/05 03:05:49;;;;;;;0.30;0.30;;;21.30;54.10;;;;;;4929832;29;20541;-72
2022/01/05 03:08:16;;;;;;;0.40;0.40;;;21.30;54.10;;;;;;4953571;29;20285;-72
2022/01/05 03:10:41;;;;;;;0.35;0.35;;;21.30;54.10;;;;;;4938084;29;20179;-72
2022/01/05 03:13:07;;;;;;;0.30;0.30;;;21.30;54.10;;;;;;4934649;29;20673;-71
2022/01/05 03:15:37;;;;;;;0.35;0.35;;;21.30;54.70;;;;;;4931216;29;20605;-72
2022/01/05 03:18:05;;;;;;;0.28;0.28;;;21.30;54.10;;;;;;4937369;29;20222;-72
2022/01/05 03:20:32;;;;;;;0.40;0.40;;;21.30;54.10;;;;;;4937570;29;20281;-72
2022/01/05 03:22:58;;;;;;;0.25;0.25;;;21.30;54.10;;;;;;4937864;29;20222;-72
2022/01/05 03:25:25;;;;;;;0.40;0.40;;;21.30;54.10;;;;;;4954408;28;20203;-72
2022/01/05 03:27:53;;;;;;;0.30;0.30;;;21.30;54.10;;;;;;4937674;29;20213;-72
2022/01/05 03:30:27;;;;;;;0.40;0.40;;;21.30;54.10;;;;;;4953454;29;20257;-72
2022/01/05 03:33:08;;;;;;;0.30;0.30;;;21.30;54.10;;;;;;4937712;29;20750;-72
2022/01/05 03:35:42;;;;;;;0.50;0.40;;;21.30;54.10;;;;;;4937170;29;20194;-72
2022/01/05 03:38:09;;;;;;;0.30;0.30;;;21.30;54.00;;;;;;4953265;29;20222;-72
2022/01/05 03:40:37;;;;;;;1.65;0.32;;;21.30;54.10;;;;;;4937369;29;20241;-72
2022/01/05 03:43:05;;;;;;;0.30;0.30;;;21.30;54.00;;;;;;4953165;29;20194;-72
2022/01/05 03:45:32;;;;;;;0.30;0.30;;;21.30;54.10;;;;;;4937240;29;20190;-72
2022/01/05 03:47:58;;;;;;;0.28;0.20;;;21.30;54.00;;;;;;4936551;29;20216;-72
2022/01/05 03:50:24;;;;;;;0.40;0.40;;;21.30;54.00;;;;;;4937118;29;20246;-72
2022/01/05 03:52:50;;;;;;;0.30;0.30;;;21.30;54.00;;;;;;4921502;29;20206;-72
2022/01/05 03:55:16;;;;;;;0.68;0.40;;;21.30;54.00;;;;;;4921442;29;20186;-72
2022/01/05 03:57:42;;;;;;;0.30;0.30;;;21.30;54.00;;;;;;4936967;29;20210;-71
2022/01/05 04:00:08;;;;;;;0.40;0.40;;;21.30;54.00;;;;;;4921553;29;20186;-72
2022/01/05 04:02:43;;;;;;;0.30;0.30;;;21.30;54.00;;;;;;4938279;29;20165;-72
2022/01/05 04:05:09;;;;;;;0.30;0.30;;;21.30;54.00;;;;;;4953170;29;20273;-72
2022/01/05 04:07:35;;;;;;;0.30;0.30;;;21.30;54.00;;;;;;4937082;29;20569;-72
2022/01/05 04:10:00;;;;;;;0.20;0.20;;;21.30;54.00;;;;;;4954318;29;20675;-72
2022/01/05 04:12:26;;;;;;;0.30;0.30;;;21.30;54.00;;;;;;4921446;29;20198;-72
2022/01/05 04:14:52;;;;;;;0.20;0.20;;;21.30;54.00;;;;;;4936997;29;20190;-72
2022/01/05 04:17:18;;;;;;;0.20;0.20;;;21.30;54.00;;;;;;4921046;29;20228;-70
2022/01/05 04:19:43;;;;;;;0.20;0.20;;;21.30;53.90;;;;;;4921002;29;20206;-72
2022/01/05 04:22:09;;;;;;;0.38;0.38;;;21.30;54.00;;;;;;4937001;29;20210;-72
2022/01/05 04:24:35;;;;;;;0.20;0.20;;;21.30;53.90;;;;;;4921094;29;20607;-71
2022/01/05 04:27:00;;;;;;;0.80;0.40;;;21.30;53.90;;;;;;4921043;29;20183;-72
2022/01/05 04:29:26;;;;;;;0.20;0.20;;;21.30;53.90;;;;;;4920855;29;20211;-72
2022/01/05 04:31:52;;;;;;;0.30;0.30;;;21.30;53.90;;;;;;4952814;29;20190;-72
2022/01/05 04:34:18;;;;;;;0.30;0.30;;;21.30;53.90;;;;;;4920895;29;20190;-71
2022/01/05 04:36:45;;;;;;;0.30;0.30;;;21.30;53.90;;;;;;4936895;29;20266;-72
2022/01/05 04:39:10;;;;;;;0.38;0.30;;;21.30;53.80;;;;;;4936731;29;20289;-72
2022/01/05 04:41:36;;;;;;;0.25;0.25;;;21.30;53.80;;;;;;4921014;29;20356;-72
2022/01/05 04:44:02;;;;;;;0.25;0.25;;;21.30;53.80;;;;;;4921125;29;20191;-72
2022/01/05 04:46:28;;;;;;;0.30;0.30;;;21.30;53.80;;;;;;4921118;29;20285;-72
2022/01/05 04:48:53;;;;;;;0.35;0.35;;;21.30;53.80;;;;;;4937063;29;20371;-72
2022/01/05 04:51:19;;;;;;;0.30;0.30;;;21.30;53.80;;;;;;4920925;29;20194;-72
2022/01/05 04:53:45;;;;;;;0.30;0.30;;;21.20;53.80;;;;;;4953904;29;20561;-72
2022/01/05 04:56:11;;;;;;;0.30;0.30;;;21.30;53.80;;;;;;4920873;29;20197;-71
2022/01/05 04:58:36;;;;;;;0.20;0.20;;;21.30;53.90;;;;;;4921414;29;20210;-72
2022/01/05 05:01:02;;;;;;;0.17;0.17;;;21.30;53.80;;;;;;4940408;29;20186;-72
2022/01/05 05:03:28;;;;;;;0.28;0.28;;;21.30;53.80;;;;;;4924658;29;20258;-72
2022/01/05 05:05:54;;;;;;;0.30;0.30;;;21.30;53.80;;;;;;4923933;29;20202;-72
2022/01/05 05:08:20;;;;;;;0.20;0.20;;;21.30;53.80;;;;;;4939991;29;20210;-72
2022/01/05 05:10:45;;;;;;;0.28;0.28;;;21.30;53.80;;;;;;4924280;29;20238;-72
2022/01/05 05:13:12;;;;;;;0.22;0.22;;;21.30;53.70;;;;;;4924160;29;20673;-72
2022/01/05 05:15:40;;;;;;;0.20;0.20;;;21.30;53.70;;;;;;4924132;29;20254;-72
2022/01/05 05:18:07;;;;;;;0.20;0.20;;;21.30;53.80;;;;;;4956866;29;20241;-72
2022/01/05 05:20:33;;;;;;;0.40;0.40;;;21.30;53.80;;;;;;4939841;29;20195;-72
2022/01/05 05:23:01;;;;;;;0.30;0.30;;;21.30;53.70;;;;;;4956794;29;20186;-72
2022/01/05 05:25:27;;;;;;;0.30;0.30;;;21.30;53.70;;;;;;4956661;29;20186;-72
2022/01/05 05:27:53;;;;;;;0.30;0.30;;;21.30;53.70;;;;;;4924064;29;20686;-72
2022/01/05 05:30:19;;;;;;;0.20;0.20;;;21.30;53.80;;;;;;4924093;29;20214;-72
2022/01/05 05:32:45;;;;;;;0.20;0.20;;;21.30;54.30;;;;;;4923699;29;20238;-72
2022/01/05 05:35:11;;;;;;;0.30;0.30;;;21.30;53.70;;;;;;4923728;29;20194;-72
2022/01/05 05:37:37;;;;;;;0.20;0.20;;;21.30;53.70;;;;;;4923570;29;20268;-72
2022/01/05 05:40:04;;;;;;;0.20;0.20;;;21.30;53.70;;;;;;4923525;29;20186;-72
2022/01/05 05:42:30;;;;;;;0.32;0.32;;;21.30;53.60;;;;;;4923420;29;20210;-72
2022/01/05 05:44:55;;;;;;;0.20;0.20;;;21.30;53.80;;;;;;4923239;29;20217;-72
2022/01/05 05:47:21;;;;;;;0.20;0.20;;;21.30;53.70;;;;;;4923406;29;20197;-72
2022/01/05 05:49:48;;;;;;;0.30;0.30;;;21.30;53.70;;;;;;4923594;29;20210;-72
2022/01/05 05:52:15;;;;;;;0.47;0.47;;;21.30;53.70;;;;;;4939409;29;20225;-72
2022/01/05 05:54:42;;;;;;;0.28;0.28;;;21.30;53.70;;;;;;4923332;29;20196;-71
2022/01/05 05:57:08;;;;;;;0.30;0.30;;;21.30;53.70;;;;;;4939234;29;20210;-72
2022/01/05 05:59:34;;;;;;;0.40;0.40;;;21.30;53.70;;;;;;4923214;29;20214;-72
2022/01/05 06:02:00;;;;;;;0.22;0.22;;;21.30;53.70;;;;;;4904831;29;20195;-72
2022/01/05 06:04:26;;;;;;;0.30;0.30;;;21.30;53.60;;;;;;4935536;29;20199;-72
2022/01/05 06:06:52;;;;;;;0.28;0.28;;;21.30;53.60;;;;;;4935678;29;20197;-72
2022/01/05 06:09:18;;;;;;;0.20;0.20;;;21.30;53.60;;;;;;4919843;29;20305;-72
2022/01/05 06:11:44;;;;;;;0.40;0.40;;;21.30;53.60;;;;;;4935042;29;20308;-72
2022/01/05 06:14:10;;;;;;;0.20;0.20;;;21.30;53.60;;;;;;4919860;29;20203;-72
2022/01/05 06:16:35;;;;;;;0.20;0.20;;;21.30;53.60;;;;;;4919512;29;20219;-72
2022/01/05 06:19:01;;;;;;;0.40;0.40;;;21.30;53.60;;;;;;4935504;29;20211;-72
2022/01/05 06:21:27;;;;;;;0.30;0.30;;;21.30;53.60;;;;;;4919514;29;20238;-72
2022/01/05 06:23:53;;;;;;;0.20;0.20;;;21.30;53.60;;;;;;4935452;29;20198;-72
2022/01/05 06:26:21;;;;;;;0.35;0.35;;;21.30;53.60;;;;;;4919568;29;20270;-72
2022/01/05 06:28:47;;;;;;;0.30;0.20;;;21.30;53.60;;;;;;4935595;29;20217;-72
2022/01/05 06:31:13;;;;;;;0.20;0.20;;;21.30;53.60;;;;;;4919350;29;20187;-71
2022/01/05 06:33:39;;;;;;;0.20;0.20;;;21.30;53.60;;;;;;4919407;29;20191;-72
2022/01/05 06:36:05;;;;;;;0.30;0.30;;;21.30;53.60;;;;;;4919405;29;20191;-72
2022/01/05 06:38:31;;;;;;;0.30;0.30;;;21.30;53.70;;;;;;4919235;29;20223;-72
2022/01/05 06:40:57;;;;;;;0.20;0.20;;;21.30;53.60;;;;;;4919511;29;20182;-72
2022/01/05 06:43:22;;;;;;;0.30;0.30;;;21.30;53.60;;;;;;4919364;29;20187;-72
2022/01/05 06:45:48;;;;;;;0.35;0.25;;;21.30;53.70;;;;;;4934753;28;20199;-72
2022/01/05 06:48:14;;;;;;;0.20;0.20;;;21.30;53.70;;;;;;4919324;29;20211;-72
2022/01/05 06:50:40;;;;;;;0.30;0.30;;;21.30;53.70;;;;;;4919406;29;20188;-72
2022/01/05 06:53:05;;;;;;;0.20;0.20;;;21.30;53.80;;;;;;4919010;29;20663;-72
2022/01/05 06:55:31;;;;;;;0.30;0.30;;;21.30;53.90;;;;;;4919029;29;20187;-72
2022/01/05 06:57:57;;;;;;;0.30;0.30;;;21.40;54.10;;;;;;4918788;29;20227;-72
2022/01/05 07:00:24;;;;;;;0.30;0.30;;;21.40;54.20;;;;;;4918902;29;20231;-72
2022/01/05 07:02:50;;;;;;;0.30;0.30;;;21.40;54.20;;;;;;4918890;29;20191;-72
2022/01/05 07:05:16;;;;;;;0.60;0.30;;;21.40;54.20;;;;;;4934478;29;20188;-72
2022/01/05 07:07:42;;;;;;;0.30;0.30;;;21.40;54.20;;;;;;4919053;29;20254;-72
2022/01/05 07:10:10;;;;;;;0.22;0.22;;;21.40;54.20;;;;;;4918660;29;20194;-72
2022/01/05 07:12:38;;;;;;;0.30;0.30;;;21.40;54.30;;;;;;4919140;29;20184;-72
2022/01/05 07:15:05;;;;;;;0.30;0.30;;;21.40;54.30;;;;;;4934305;29;20198;-72
2022/01/05 07:17:31;;;;;;;0.30;0.30;;;21.40;54.20;;;;;;4935493;29;20262;-72
2022/01/05 07:19:57;;;;;;;0.40;0.32;;;21.40;54.30;;;;;;4934367;29;20274;-72
2022/01/05 07:22:22;;;;;;;0.20;0.20;;;21.40;54.20;;;;;;4918028;29;20187;-72
2022/01/05 07:24:49;;;;;;;0.30;0.30;;;21.40;54.20;;;;;;4934288;29;20655;-72
2022/01/05 07:27:15;;;;;;;0.43;0.43;;;21.40;54.20;;;;;;4918463;29;20203;-72
2022/01/05 07:29:40;;;;;;;0.30;0.30;;;21.40;54.80;;;;;;4918352;29;20219;-72
2022/01/05 07:32:07;;;;;;;0.40;0.40;;;21.40;54.20;;;;;;4918353;29;20197;-72
2022/01/05 07:34:32;;;;;;;0.30;0.30;;;21.40;54.20;;;;;;4934017;29;20199;-72
2022/01/05 07:36:59;;;;;;;0.57;0.40;;;21.40;54.20;;;;;;4918462;29;20211;-72
2022/01/05 07:39:24;;;;;;;0.22;0.22;;;21.40;54.30;;;;;;4902819;29;20219;-72
2022/01/05 07:41:50;;;;;;;0.30;0.30;;;21.40;54.20;;;;;;4918597;29;20258;-72
2022/01/05 07:44:17;;;;;;;0.52;0.30;;;21.40;54.20;;;;;;4933936;29;20234;-72
2022/01/05 07:46:43;;;;;;;0.30;0.30;;;21.40;54.10;;;;;;4918582;29;20191;-72
2022/01/05 07:49:09;;;;;;;0.35;0.28;;;21.40;54.10;;;;;;4918481;29;20211;-72
2022/01/05 07:51:35;;;;;;;0.30;0.30;;;21.40;54.20;;;;;;4918228;29;20201;-72
2022/01/05 07:54:01;;;;;;;0.30;0.30;;;21.30;54.10;;;;;;4902538;29;20269;-72
2022/01/05 07:56:27;;;;;;;0.20;0.20;;;21.40;54.10;;;;;;4918199;29;20191;-72
2022/01/05 07:58:54;;;;;;;0.50;0.50;;;21.40;54.10;;;;;;4934135;29;20222;-72
2022/01/05 08:01:20;;;;;;;0.20;0.20;;;21.40;54.10;;;;;;4918114;29;20195;-72
2022/01/05 08:03:49;;;;;;;0.22;0.20;;;21.40;54.00;;;;;;4917995;29;20251;-72
2022/01/05 08:06:17;;;;;;;0.30;0.30;;;21.40;54.10;;;;;;4917921;29;20227;-72
2022/01/05 08:08:46;;;;;;;0.30;0.30;;;21.40;54.10;;;;;;4918252;29;20270;-73
2022/01/05 08:11:12;;;;;;;0.30;0.30;;;21.40;54.70;;;;;;4933909;29;20189;-72
2022/01/05 08:13:38;;;;;;;0.32;0.32;;;21.40;54.20;;;;;;4917810;29;20187;-72
2022/01/05 08:16:05;;;;;;;1.05;0.30;;;21.40;54.30;;;;;;4950871;28;20186;-72
2022/01/05 08:18:31;;;;;;;0.30;0.30;;;21.40;54.30;;;;;;4921124;29;20225;-72
2022/01/05 08:20:57;;;;;;;0.20;0.20;;;21.40;54.30;;;;;;4937414;29;20205;-72
2022/01/05 08:23:25;;;;;;;0.30;0.30;;;21.40;54.30;;;;;;4936878;29;20186;-72
2022/01/05 08:25:52;;;;;;;0.20;0.20;;;21.40;54.30;;;;;;4936644;29;20237;-72
2022/01/05 08:28:19;;;;;;;0.28;0.28;;;21.40;54.30;;;;;;4937226;29;20217;-72
2022/01/05 08:30:45;;;;;;;0.30;0.30;;;21.40;54.30;;;;;;4936886;29;20198;-72
2022/01/05 08:33:14;;;;;;;0.40;0.40;;;21.40;54.30;;;;;;4937388;28;20186;-72
2022/01/05 08:35:40;;;;;;;0.20;0.20;;;21.40;54.30;;;;;;4940694;29;20223;-72
2022/01/05 08:38:07;;;;;;;0.30;0.30;;;21.40;54.30;;;;;;4940902;29;20222;-72
2022/01/05 08:40:36;;;;;;;0.25;0.25;;;21.40;54.30;;;;;;4924577;29;20242;-72
2022/01/05 08:43:05;;;;;;;0.30;0.30;;;21.40;54.30;;;;;;4957412;29;20182;-72
2022/01/05 08:45:32;;;;;;;0.73;0.30;;;21.40;54.30;;;;;;4940406;28;20193;-72
2022/01/05 08:47:59;;;;;;;0.30;0.30;;;21.40;54.30;;;;;;4928982;28;20218;-72
2022/01/05 08:50:30;;;;;;;0.55;0.38;;;21.40;54.30;;;;;;4956115;29;20269;-72
2022/01/05 08:52:57;;;;;;;0.55;0.40;;;21.40;54.30;;;;;;4956669;28;20186;-72
2022/01/05 08:55:31;;;;;;;0.30;0.30;;;21.40;54.20;;;;;;4942095;28;20205;-73
2022/01/05 08:57:57;;;;;;;0.40;0.30;;;21.40;54.20;;;;;;4932635;29;20226;-72
2022/01/05 09:00:23;;;;;;;0.52;0.40;;;21.40;54.10;;;;;;4940372;29;20202;-72
2022/01/05 09:02:50;;;;;;;0.35;0.35;;;21.40;54.10;;;;;;4955910;28;20213;-72
2022/01/05 09:05:16;;;;;;;0.30;0.30;;;21.40;54.00;;;;;;4943301;28;20185;-72
2022/01/05 09:07:43;;;;;;;0.45;0.43;;;21.40;54.00;;;;;;4943353;28;20189;-73
2022/01/05 09:10:09;;;;;;;0.30;0.30;;;21.40;54.00;;;;;;4940939;28;20202;-73
2022/01/05 09:12:35;;;;;;;1.67;0.40;;;21.40;53.90;;;;;;4945566;28;20630;-74
2022/01/05 09:15:03;;;;;;;3.30;0.50;;;21.40;54.60;;;;;;4944176;29;20198;-74
2022/01/05 09:17:29;;;;;;;1.60;0.43;;;21.50;54.40;;;;;;4939569;29;20309;-74
2022/01/05 09:19:55;;;;;;;0.70;0.40;;;21.50;54.40;;;;;;4924225;29;20217;-74
2022/01/05 09:22:22;;;;;;;0.40;0.40;;;21.40;54.30;;;;;;4939802;29;20191;-74
2022/01/05 09:24:50;;;;;;;3.03;0.55;;;21.40;54.30;;;;;;4923590;29;20191;-74
2022/01/05 09:27:17;;;;;;;0.90;0.55;;;21.40;54.30;;;;;;4955700;29;20250;-74
2022/01/05 09:29:43;;;;;;;0.60;0.40;;;21.40;54.30;;;;;;4939518;29;20210;-74
2022/01/05 09:32:09;;;;;;;0.40;0.40;;;21.40;54.20;;;;;;4939650;29;20265;-74
2022/01/05 09:34:37;;;;;;;0.52;0.50;;;21.40;54.20;;;;;;4923407;29;20198;-73
2022/01/05 09:37:10;;;;;;;0.98;0.40;;;21.40;54.10;;;;;;4939323;29;20210;-74
2022/01/05 09:42:22;;;;;;;0.93;0.60;;;21.40;54.10;;;;;;4956660;29;20194;-73
2022/01/05 09:44:51;;;;;;;0.70;0.60;;;21.50;54.20;;;;;;4938657;28;20175;-73
2022/01/05 09:48:12;;;;;;;2.47;0.40;;;21.40;54.20;;;;;;4922877;29;20186;-73
2022/01/05 09:51:06;;;;;;;0.47;0.40;;;21.40;54.00;;;;;;4923666;29;20193;-74
2022/01/05 09:53:33;;;;;;;1.20;0.55;;;21.50;54.40;;;;;;4956050;28;20193;-74
2022/01/05 09:55:59;;;;;;;0.93;0.57;;;21.50;54.20;;;;;;4939140;29;20186;-74
2022/01/05 09:58:28;;;;;;;2.47;1.08;;;21.40;54.10;;;;;;4938984;29;20233;-74
2022/01/05 10:00:54;;;;;;;5.90;2.35;;;21.40;54.00;;;;;;4939267;28;20338;-74
2022/01/05 10:03:23;;;;;;;1.83;1.08;;;21.50;54.00;;;;;;4930797;29;20277;-74
2022/01/05 10:05:49;;;;;;;2.10;1.25;;;21.40;53.90;;;;;;4938616;29;20230;-73
2022/01/05 10:08:15;;;;;;;3.33;1.38;;;21.40;54.40;;;;;;4923234;29;20272;-74
2022/01/05 10:10:42;;;;;;;2.30;1.20;;;21.40;53.80;;;;;;4938915;29;20273;-75
2022/01/05 10:13:08;;;;;;;2.13;1.25;;;21.40;53.80;;;;;;4955955;29;20333;-73
2022/01/05 10:15:35;;;;;;;2.47;1.45;;;21.50;53.80;;;;;;4938560;29;20187;-72
2022/01/05 10:18:16;;;;;;;3.05;1.58;;;21.50;53.70;;;;;;4922721;29;20651;-74
2022/01/05 10:21:02;;;;;;;1.50;0.88;;;21.40;53.70;;;;;;4938727;29;20562;-74
2022/01/05 10:23:39;;;;;;;2.75;1.20;;;21.40;53.70;;;;;;4938734;29;20179;-74
2022/01/05 10:26:27;;;;;;;2.38;1.00;;;21.50;53.70;;;;;;4938392;29;20190;-73
2022/01/05 10:29:05;;;;;;;1.70;1.10;;;21.50;53.70;;;;;;4922987;29;20209;-73
2022/01/05 10:31:39;;;;;;;4.30;2.22;;;21.40;53.60;;;;;;4938535;29;20205;-74
2022/01/05 10:34:21;;;;;;;1.83;1.40;;;21.50;53.70;;;;;;4922980;29;20187;-74
2022/01/05 10:36:49;;;;;;;2.10;1.75;;;21.50;53.70;;;;;;4954312;28;20701;-74
2022/01/05 10:39:18;;;;;;;2.75;1.60;;;21.50;53.70;;;;;;4955721;29;20253;-74
2022/01/05 10:41:46;;;;;;;3.38;1.63;;;21.50;53.60;;;;;;4938623;28;20214;-73
2022/01/05 10:44:21;;;;;;;3.22;1.40;;;21.50;53.60;;;;;;4938404;29;20186;-73
2022/01/05 10:46:58;;;;;;;2.45;1.42;;;21.50;53.60;;;;;;4938110;29;20190;-73
2022/01/05 10:49:40;;;;;;;2.42;1.80;;;21.50;53.50;;;;;;4954000;29;20216;-73
2022/01/05 10:52:56;;;;;;;2.60;1.30;;;21.50;53.60;;;;;;4954581;28;20257;-73
2022/01/05 10:55:25;;;;;;;2.63;1.50;;;21.50;53.50;;;;;;4880152;29;20201;-74
2022/01/05 10:58:11;;;;;;;2.38;1.35;;;21.50;53.60;;;;;;4879858;29;20239;-75
2022/01/05 11:00:47;;;;;;;3.03;1.55;;;21.50;53.60;;;;;;4915644;29;20233;-73
2022/01/05 11:03:41;;;;;;;2.38;1.67;;;21.50;53.60;;;;;;4922137;29;20213;-74
2022/01/05 11:06:17;;;;;;;1.45;1.17;;;21.50;53.60;;;;;;4937660;29;20218;-74
2022/01/05 11:08:50;;;;;;;3.80;1.30;;;21.50;53.50;;;;;;4937959;29;20327;-74
2022/01/05 11:11:47;;;;;;;3.08;1.42;;;21.40;53.40;;;;;;4937912;29;20202;-74
2022/01/05 11:14:29;;;;;;;2.45;1.30;;;21.40;53.40;;;;;;4937875;29;20179;-73
2022/01/05 11:16:58;;;;;;;2.45;1.52;;;21.50;53.40;;;;;;4937534;29;20358;-74
2022/01/05 11:19:29;;;;;;;2.47;1.20;;;21.50;53.50;;;;;;4938061;29;20207;-75
2022/01/05 11:22:25;;;;;;;2.42;1.40;;;21.50;53.40;;;;;;4937599;29;20404;-73
2022/01/05 11:24:53;;;;;;;2.13;1.30;;;21.50;53.40;;;;;;4937601;29;20225;-72
2022/01/05 11:27:28;;;;;;;2.38;1.35;;;21.50;53.50;;;;;;4937551;29;20210;-72
2022/01/05 11:29:56;;;;;;;2.17;1.10;;;21.50;53.60;;;;;;4953804;29;20690;-72
2022/01/05 11:32:27;;;;;;;2.03;1.23;;;21.50;53.50;;;;;;4921632;29;20190;-74
2022/01/05 11:34:54;;;;;;;2.13;1.25;;;21.50;53.50;;;;;;4937417;29;20174;-71
2022/01/05 11:37:20;;;;;;;2.08;1.20;;;21.50;53.60;;;;;;4919882;29;20225;-72
2022/01/05 11:39:53;;;;;;;2.78;1.40;;;21.50;53.60;;;;;;4937200;29;20293;-72
2022/01/05 11:42:40;;;;;;;2.70;1.33;;;21.50;53.40;;;;;;4937364;29;20190;-72
2022/01/05 11:45:08;;;;;;;3.20;1.30;;;21.50;53.40;;;;;;4937225;29;20182;-72
2022/01/05 11:47:41;;;;;;;2.20;0.98;;;21.50;53.40;;;;;;4921701;29;20198;-71
2022/01/05 11:50:26;;;;;;;1.25;1.00;;;21.40;53.30;;;;;;4937313;29;20190;-72
2022/01/05 11:52:59;;;;;;;1.90;1.25;;;21.40;53.30;;;;;;4937643;29;20190;-71
2022/01/05 11:55:28;;;;;;;2.88;1.33;;;21.50;53.40;;;;;;4921080;29;20201;-71
2022/01/05 11:58:14;;;;;;;1.90;1.38;;;21.40;53.30;;;;;;4937016;29;20254;-71
2022/01/05 12:00:40;;;;;;;3.20;1.75;;;21.40;53.30;;;;;;4937298;29;20182;-71
2022/01/05 12:03:06;;;;;;;1.65;1.20;;;21.40;53.20;;;;;;4954441;29;20191;-71
2022/01/05 12:06:07;;;;;;;2.53;1.40;;;21.40;53.30;;;;;;4953796;29;20184;-71
2022/01/05 12:08:46;;;;;;;2.30;1.30;;;21.50;53.30;;;;;;4937341;29;20217;-71
2022/01/05 12:11:33;;;;;;;3.10;1.17;;;21.40;53.10;;;;;;4958153;29;20701;-72
2022/01/05 12:14:02;;;;;;;1.92;1.10;;;21.40;53.10;;;;;;4941043;29;20200;-71
2022/01/05 12:16:28;;;;;;;1.63;1.30;;;21.50;53.20;;;;;;4956578;29;20620;-72
2022/01/05 12:19:12;;;;;;;1.42;1.30;;;21.40;53.10;;;;;;4925036;29;20217;-71
2022/01/05 12:21:52;;;;;;;1.45;1.27;;;21.40;53.20;;;;;;4940827;29;20190;-72
2022/01/05 12:24:19;;;;;;;1.90;1.15;;;21.50;53.10;;;;;;4925117;29;20186;-71
2022/01/05 12:27:58;;;;;;;1.80;1.42;;;21.40;53.10;;;;;;4924938;29;20212;-72
2022/01/05 12:30:26;;;;;;;2.65;1.35;;;21.40;53.10;;;;;;4880071;29;20186;-71
2022/01/05 12:33:09;;;;;;;2.58;1.48;;;21.50;53.00;;;;;;4919124;29;20226;-71
2022/01/05 12:35:52;;;;;;;2.35;1.63;;;21.50;53.00;;;;;;4921203;29;20179;-72
2022/01/05 12:38:37;;;;;;;1.98;1.25;;;21.50;52.90;;;;;;4921216;29;20219;-72
2022/01/05 12:41:38;;;;;;;4.07;1.75;;;21.50;53.00;;;;;;4921892;29;20183;-71
2022/01/05 12:44:16;;;;;;;4.50;1.80;;;21.50;54.80;;;;;;4923146;29;20190;-72
2022/01/05 12:46:46;;;;;;;3.05;1.75;;;21.60;56.40;;;;;;4920836;29;20258;-72
2022/01/05 12:49:32;;;;;;;3.60;1.67;;;21.60;55.80;;;;;;4921568;29;20211;-72
2022/01/05 12:52:14;;;;;;;6.03;1.70;;;21.60;55.30;;;;;;4921313;29;20187;-72
2022/01/05 12:54:52;;;;;;;6.50;1.88;;;21.60;55.30;;;;;;4921289;29;20222;-71
2022/01/05 12:57:22;;;;;;;2.75;1.50;;;21.60;55.20;;;;;;4938578;29;20202;-71
2022/01/05 12:59:51;;;;;;;2.63;1.60;;;21.50;55.00;;;;;;4957252;29;20572;-71